<?xml version="1.0" encoding="UTF-8" standalone="no" ?>
<gpx xmlns="http://www.topografix.com/GPX/1/1" xmlns:xsi="http://www.w3.org/2001/XMLSchema-instance" xsi:schemaLocation="http://www.topografix.com/GPX/1/1 http://www.topografix.com/GPX/1/1/gpx.xsd" version="1.1" creator="VisuGPX - https://www.visugpx.com">
  <metadata>
    <name>2024 05 22 Parcours Total 2024</name>
  </metadata>
  <trk>
    <name><![CDATA[Trail8 Boucle n°2]]></name>
    <extensions>
      <line xmlns="http://www.topografix.com/GPX/gpx_style/0/2">
        <color>ff00dd</color>
        <width>5</width>
          <extensions>
            <sens>1</sens>
          </extensions>
      </line>
    </extensions>
    <trkseg>
      <trkpt lat="48.15" lon="3.32555">
        <ele>108.9</ele>
        <time>2023-12-22T08:30:03Z</time>
      </trkpt>
      <trkpt lat="48.15" lon="3.32555">
        <ele>108.9</ele>
        <time>2023-12-22T08:30:04Z</time>
      </trkpt>
      <trkpt lat="48.15" lon="3.32554">
        <ele>109</ele>
        <time>2023-12-22T08:30:05Z</time>
      </trkpt>
      <trkpt lat="48.15009" lon="3.32547">
        <ele>110</ele>
        <time>2023-12-22T08:30:15Z</time>
      </trkpt>
      <trkpt lat="48.15011" lon="3.32546">
        <ele>110.3</ele>
        <time>2023-12-22T08:30:19Z</time>
      </trkpt>
      <trkpt lat="48.15015" lon="3.32539">
        <ele>110.5</ele>
        <time>2023-12-22T08:30:25Z</time>
      </trkpt>
      <trkpt lat="48.15023" lon="3.32528">
        <ele>111.1</ele>
        <time>2023-12-22T08:30:35Z</time>
      </trkpt>
      <trkpt lat="48.15023" lon="3.32524">
        <ele>111</ele>
        <time>2023-12-22T08:30:38Z</time>
      </trkpt>
      <trkpt lat="48.15027" lon="3.32516">
        <ele>111.3</ele>
        <time>2023-12-22T08:30:51Z</time>
      </trkpt>
      <trkpt lat="48.1503" lon="3.32519">
        <ele>112.2</ele>
        <time>2023-12-22T08:31:23Z</time>
      </trkpt>
      <trkpt lat="48.1503" lon="3.32521">
        <ele>112.3</ele>
        <time>2023-12-22T08:31:24Z</time>
      </trkpt>
      <trkpt lat="48.15035" lon="3.32536">
        <ele>114.6</ele>
        <time>2023-12-22T08:31:34Z</time>
      </trkpt>
      <trkpt lat="48.1504" lon="3.32548">
        <ele>116.9</ele>
        <time>2023-12-22T08:31:43Z</time>
      </trkpt>
      <trkpt lat="48.15046" lon="3.32553">
        <ele>118.5</ele>
        <time>2023-12-22T08:35:00Z</time>
      </trkpt>
      <trkpt lat="48.15053" lon="3.32552">
        <ele>120.4</ele>
        <time>2023-12-22T08:35:29Z</time>
      </trkpt>
      <trkpt lat="48.15056" lon="3.32547">
        <ele>121</ele>
        <time>2023-12-22T08:35:34Z</time>
      </trkpt>
      <trkpt lat="48.15061" lon="3.32542">
        <ele>122.9</ele>
        <time>2023-12-22T08:35:42Z</time>
      </trkpt>
      <trkpt lat="48.15063" lon="3.32543">
        <ele>123.3</ele>
        <time>2023-12-22T08:35:44Z</time>
      </trkpt>
      <trkpt lat="48.15066" lon="3.32544">
        <ele>124.4</ele>
        <time>2023-12-22T08:35:50Z</time>
      </trkpt>
      <trkpt lat="48.1507" lon="3.32543">
        <ele>125.8</ele>
        <time>2023-12-22T08:35:57Z</time>
      </trkpt>
      <trkpt lat="48.15074" lon="3.32538">
        <ele>126.6</ele>
        <time>2023-12-22T08:36:03Z</time>
      </trkpt>
      <trkpt lat="48.15076" lon="3.32534">
        <ele>127.2</ele>
        <time>2023-12-22T08:36:09Z</time>
      </trkpt>
      <trkpt lat="48.1508" lon="3.32528">
        <ele>128</ele>
        <time>2023-12-22T08:36:15Z</time>
      </trkpt>
      <trkpt lat="48.15085" lon="3.32522">
        <ele>129.2</ele>
        <time>2023-12-22T08:36:23Z</time>
      </trkpt>
      <trkpt lat="48.15091" lon="3.3251">
        <ele>130.5</ele>
        <time>2023-12-22T08:36:32Z</time>
      </trkpt>
      <trkpt lat="48.15097" lon="3.32501">
        <ele>131.9</ele>
        <time>2023-12-22T08:36:43Z</time>
      </trkpt>
      <trkpt lat="48.15099" lon="3.32489">
        <ele>131.6</ele>
        <time>2023-12-22T08:36:51Z</time>
      </trkpt>
      <trkpt lat="48.15101" lon="3.32476">
        <ele>131.2</ele>
        <time>2023-12-22T08:37:00Z</time>
      </trkpt>
      <trkpt lat="48.15105" lon="3.32463">
        <ele>131.3</ele>
        <time>2023-12-22T08:37:06Z</time>
      </trkpt>
      <trkpt lat="48.15106" lon="3.32462">
        <ele>131.5</ele>
        <time>2023-12-22T08:37:07Z</time>
      </trkpt>
      <trkpt lat="48.15109" lon="3.3246">
        <ele>132</ele>
        <time>2023-12-22T08:37:10Z</time>
      </trkpt>
      <trkpt lat="48.15107" lon="3.32456">
        <ele>131</ele>
        <time>2023-12-22T08:37:16Z</time>
      </trkpt>
      <trkpt lat="48.15114" lon="3.3245">
        <ele>132.3</ele>
        <time>2023-12-22T08:37:23Z</time>
      </trkpt>
      <trkpt lat="48.1512" lon="3.32444">
        <ele>133.1</ele>
        <time>2023-12-22T08:37:29Z</time>
      </trkpt>
      <trkpt lat="48.15124" lon="3.32439">
        <ele>133.5</ele>
        <time>2023-12-22T08:37:36Z</time>
      </trkpt>
      <trkpt lat="48.15127" lon="3.32434">
        <ele>133.4</ele>
        <time>2023-12-22T08:37:41Z</time>
      </trkpt>
      <trkpt lat="48.15131" lon="3.32426">
        <ele>133.3</ele>
        <time>2023-12-22T08:37:50Z</time>
      </trkpt>
      <trkpt lat="48.15133" lon="3.32432">
        <ele>134.9</ele>
        <time>2023-12-22T08:37:58Z</time>
      </trkpt>
      <trkpt lat="48.15133" lon="3.32433">
        <ele>134.9</ele>
        <time>2023-12-22T08:37:59Z</time>
      </trkpt>
      <trkpt lat="48.15131" lon="3.32446">
        <ele>136.1</ele>
        <time>2023-12-22T08:38:08Z</time>
      </trkpt>
      <trkpt lat="48.15134" lon="3.3245">
        <ele>137.3</ele>
        <time>2023-12-22T08:38:14Z</time>
      </trkpt>
      <trkpt lat="48.15138" lon="3.3245">
        <ele>138.3</ele>
        <time>2023-12-22T08:38:18Z</time>
      </trkpt>
      <trkpt lat="48.15142" lon="3.32449">
        <ele>139.2</ele>
        <time>2023-12-22T08:38:25Z</time>
      </trkpt>
      <trkpt lat="48.15145" lon="3.32445">
        <ele>139.5</ele>
        <time>2023-12-22T08:38:32Z</time>
      </trkpt>
      <trkpt lat="48.15151" lon="3.3244">
        <ele>140.4</ele>
        <time>2023-12-22T08:38:39Z</time>
      </trkpt>
      <trkpt lat="48.1516" lon="3.32436">
        <ele>142.2</ele>
        <time>2023-12-22T08:38:48Z</time>
      </trkpt>
      <trkpt lat="48.15168" lon="3.32428">
        <ele>143.4</ele>
        <time>2023-12-22T08:38:56Z</time>
      </trkpt>
      <trkpt lat="48.15174" lon="3.32426">
        <ele>144.6</ele>
        <time>2023-12-22T08:39:06Z</time>
      </trkpt>
      <trkpt lat="48.15177" lon="3.32429">
        <ele>145.4</ele>
        <time>2023-12-22T08:39:09Z</time>
      </trkpt>
      <trkpt lat="48.15182" lon="3.32435">
        <ele>146.9</ele>
        <time>2023-12-22T08:39:16Z</time>
      </trkpt>
      <trkpt lat="48.15185" lon="3.32438">
        <ele>147.8</ele>
        <time>2023-12-22T08:39:23Z</time>
      </trkpt>
      <trkpt lat="48.15185" lon="3.32438">
        <ele>147.8</ele>
        <time>2023-12-22T08:39:25Z</time>
      </trkpt>
      <trkpt lat="48.1519" lon="3.32437">
        <ele>148.6</ele>
        <time>2023-12-22T08:39:30Z</time>
      </trkpt>
      <trkpt lat="48.15196" lon="3.32438">
        <ele>149.8</ele>
        <time>2023-12-22T08:39:38Z</time>
      </trkpt>
      <trkpt lat="48.152" lon="3.32435">
        <ele>150.3</ele>
        <time>2023-12-22T08:39:43Z</time>
      </trkpt>
      <trkpt lat="48.15204" lon="3.32434">
        <ele>151</ele>
        <time>2023-12-22T08:39:47Z</time>
      </trkpt>
      <trkpt lat="48.15206" lon="3.32436">
        <ele>151.5</ele>
        <time>2023-12-22T08:39:51Z</time>
      </trkpt>
      <trkpt lat="48.15208" lon="3.32439">
        <ele>152</ele>
        <time>2023-12-22T08:39:54Z</time>
      </trkpt>
      <trkpt lat="48.15213" lon="3.32442">
        <ele>153.2</ele>
        <time>2023-12-22T08:40:02Z</time>
      </trkpt>
      <trkpt lat="48.15216" lon="3.32441">
        <ele>153.6</ele>
        <time>2023-12-22T08:40:11Z</time>
      </trkpt>
      <trkpt lat="48.15217" lon="3.32441">
        <ele>153.8</ele>
        <time>2023-12-22T08:40:17Z</time>
      </trkpt>
      <trkpt lat="48.1522" lon="3.32448">
        <ele>154.9</ele>
        <time>2023-12-22T08:40:26Z</time>
      </trkpt>
      <trkpt lat="48.15229" lon="3.32455">
        <ele>156.8</ele>
        <time>2023-12-22T08:40:35Z</time>
      </trkpt>
      <trkpt lat="48.1523" lon="3.32455">
        <ele>157</ele>
        <time>2023-12-22T08:40:36Z</time>
      </trkpt>
      <trkpt lat="48.15235" lon="3.32463">
        <ele>158.3</ele>
        <time>2023-12-22T08:40:44Z</time>
      </trkpt>
      <trkpt lat="48.15237" lon="3.32462">
        <ele>158.6</ele>
        <time>2023-12-22T08:40:52Z</time>
      </trkpt>
      <trkpt lat="48.15241" lon="3.32467">
        <ele>159.5</ele>
        <time>2023-12-22T08:40:58Z</time>
      </trkpt>
      <trkpt lat="48.15245" lon="3.32472">
        <ele>160.3</ele>
        <time>2023-12-22T08:41:05Z</time>
      </trkpt>
      <trkpt lat="48.15251" lon="3.32482">
        <ele>162.3</ele>
        <time>2023-12-22T08:41:13Z</time>
      </trkpt>
      <trkpt lat="48.15256" lon="3.32483">
        <ele>162.9</ele>
        <time>2023-12-22T08:41:20Z</time>
      </trkpt>
      <trkpt lat="48.15261" lon="3.32481">
        <ele>163.5</ele>
        <time>2023-12-22T08:41:26Z</time>
      </trkpt>
      <trkpt lat="48.15263" lon="3.32484">
        <ele>163.9</ele>
        <time>2023-12-22T08:41:30Z</time>
      </trkpt>
      <trkpt lat="48.15266" lon="3.32491">
        <ele>164.9</ele>
        <time>2023-12-22T08:41:37Z</time>
      </trkpt>
      <trkpt lat="48.15267" lon="3.32498">
        <ele>165.6</ele>
        <time>2023-12-22T08:41:45Z</time>
      </trkpt>
      <trkpt lat="48.15263" lon="3.32504">
        <ele>165.6</ele>
        <time>2023-12-22T08:41:52Z</time>
      </trkpt>
      <trkpt lat="48.15264" lon="3.32512">
        <ele>166.1</ele>
        <time>2023-12-22T08:41:59Z</time>
      </trkpt>
      <trkpt lat="48.15264" lon="3.32519">
        <ele>166.5</ele>
        <time>2023-12-22T08:42:05Z</time>
      </trkpt>
      <trkpt lat="48.15264" lon="3.32523">
        <ele>166.7</ele>
        <time>2023-12-22T08:42:08Z</time>
      </trkpt>
      <trkpt lat="48.15263" lon="3.32527">
        <ele>166.9</ele>
        <time>2023-12-22T08:42:11Z</time>
      </trkpt>
      <trkpt lat="48.15257" lon="3.32536">
        <ele>167.1</ele>
        <time>2023-12-22T08:42:19Z</time>
      </trkpt>
      <trkpt lat="48.15254" lon="3.32547">
        <ele>167.7</ele>
        <time>2023-12-22T08:42:26Z</time>
      </trkpt>
      <trkpt lat="48.15256" lon="3.32553">
        <ele>168.2</ele>
        <time>2023-12-22T08:42:31Z</time>
      </trkpt>
      <trkpt lat="48.15255" lon="3.32562">
        <ele>168.8</ele>
        <time>2023-12-22T08:42:38Z</time>
      </trkpt>
      <trkpt lat="48.15251" lon="3.32575">
        <ele>169.5</ele>
        <time>2023-12-22T08:42:46Z</time>
      </trkpt>
      <trkpt lat="48.15249" lon="3.32582">
        <ele>169.8</ele>
        <time>2023-12-22T08:42:50Z</time>
      </trkpt>
      <trkpt lat="48.1525" lon="3.32592">
        <ele>170.3</ele>
        <time>2023-12-22T08:42:56Z</time>
      </trkpt>
      <trkpt lat="48.1525" lon="3.32602">
        <ele>170.7</ele>
        <time>2023-12-22T08:43:02Z</time>
      </trkpt>
      <trkpt lat="48.15252" lon="3.32612">
        <ele>171.1</ele>
      </trkpt>
      <trkpt lat="48.15251" lon="3.32619">
        <ele>171.3</ele>
        <time>2023-12-22T08:43:25Z</time>
      </trkpt>
      <trkpt lat="48.15251" lon="3.32635">
        <ele>171.9</ele>
        <time>2023-12-22T08:43:35Z</time>
      </trkpt>
      <trkpt lat="48.15249" lon="3.32643">
        <ele>172</ele>
        <time>2023-12-22T08:43:42Z</time>
      </trkpt>
      <trkpt lat="48.15249" lon="3.32644">
        <ele>172</ele>
      </trkpt>
      <trkpt lat="48.15249" lon="3.32648">
        <ele>172.2</ele>
        <time>2023-10-29T16:20:47Z</time>
      </trkpt>
      <trkpt lat="48.15248" lon="3.32653">
        <ele>172.3</ele>
        <time>2023-10-29T16:20:41Z</time>
      </trkpt>
      <trkpt lat="48.15249" lon="3.32653">
        <ele>172.4</ele>
        <time>2023-10-29T16:20:36Z</time>
      </trkpt>
      <trkpt lat="48.15242" lon="3.32653">
        <ele>171.5</ele>
        <time>2023-10-29T16:20:29Z</time>
      </trkpt>
      <trkpt lat="48.15235" lon="3.32656">
        <ele>170.7</ele>
        <time>2023-10-29T16:20:21Z</time>
      </trkpt>
      <trkpt lat="48.1523" lon="3.32662">
        <ele>170.1</ele>
        <time>2023-10-29T16:20:12Z</time>
      </trkpt>
      <trkpt lat="48.15226" lon="3.32664">
        <ele>169.5</ele>
        <time>2023-10-29T16:20:05Z</time>
      </trkpt>
      <trkpt lat="48.15219" lon="3.32663">
        <ele>168.3</ele>
        <time>2023-10-29T16:19:57Z</time>
      </trkpt>
      <trkpt lat="48.15214" lon="3.32666">
        <ele>167.2</ele>
        <time>2023-10-29T16:19:49Z</time>
      </trkpt>
      <trkpt lat="48.1521" lon="3.32659">
        <ele>166.2</ele>
        <time>2023-10-29T16:19:41Z</time>
      </trkpt>
      <trkpt lat="48.15204" lon="3.32653">
        <ele>164.7</ele>
        <time>2023-10-29T16:19:34Z</time>
      </trkpt>
      <trkpt lat="48.15198" lon="3.32652">
        <ele>163.3</ele>
        <time>2023-10-29T16:19:26Z</time>
      </trkpt>
      <trkpt lat="48.1519" lon="3.32656">
        <ele>161.3</ele>
        <time>2023-10-29T16:19:17Z</time>
      </trkpt>
      <trkpt lat="48.15183" lon="3.32667">
        <ele>159.3</ele>
        <time>2023-10-29T16:19:08Z</time>
      </trkpt>
      <trkpt lat="48.1518" lon="3.32675">
        <ele>158.2</ele>
        <time>2023-10-29T16:19:01Z</time>
      </trkpt>
      <trkpt lat="48.15176" lon="3.32689">
        <ele>156.8</ele>
        <time>2023-10-29T16:18:51Z</time>
      </trkpt>
      <trkpt lat="48.15176" lon="3.32695">
        <ele>156.7</ele>
        <time>2023-10-29T16:18:47Z</time>
      </trkpt>
      <trkpt lat="48.1518" lon="3.32706">
        <ele>157.8</ele>
        <time>2023-10-29T16:18:39Z</time>
      </trkpt>
      <trkpt lat="48.15182" lon="3.32716">
        <ele>158.4</ele>
        <time>2023-10-29T16:18:31Z</time>
      </trkpt>
      <trkpt lat="48.15183" lon="3.32723">
        <ele>158.7</ele>
        <time>2023-10-29T16:18:26Z</time>
      </trkpt>
      <trkpt lat="48.15177" lon="3.32733">
        <ele>157</ele>
        <time>2023-10-29T16:18:19Z</time>
      </trkpt>
      <trkpt lat="48.15174" lon="3.32741">
        <ele>156.1</ele>
        <time>2023-10-29T16:18:13Z</time>
      </trkpt>
      <trkpt lat="48.15173" lon="3.32751">
        <ele>155.9</ele>
        <time>2023-10-29T16:18:07Z</time>
      </trkpt>
      <trkpt lat="48.1517" lon="3.32762">
        <ele>155.4</ele>
        <time>2023-10-29T16:17:59Z</time>
      </trkpt>
      <trkpt lat="48.1517" lon="3.32774">
        <ele>155.8</ele>
        <time>2023-10-29T16:17:51Z</time>
      </trkpt>
      <trkpt lat="48.15171" lon="3.32782">
        <ele>156.4</ele>
        <time>2023-10-29T16:17:44Z</time>
      </trkpt>
      <trkpt lat="48.15173" lon="3.32793">
        <ele>157.2</ele>
        <time>2023-10-29T16:17:35Z</time>
      </trkpt>
      <trkpt lat="48.15178" lon="3.32801">
        <ele>158.8</ele>
        <time>2023-10-29T16:17:27Z</time>
      </trkpt>
      <trkpt lat="48.15179" lon="3.3281">
        <ele>159.3</ele>
        <time>2023-10-29T16:17:18Z</time>
      </trkpt>
      <trkpt lat="48.15176" lon="3.32823">
        <ele>159</ele>
        <time>2023-10-29T16:17:10Z</time>
      </trkpt>
      <trkpt lat="48.15173" lon="3.3283">
        <ele>158.5</ele>
        <time>2023-10-29T16:17:04Z</time>
      </trkpt>
      <trkpt lat="48.15167" lon="3.32838">
        <ele>157.3</ele>
        <time>2023-10-29T16:16:55Z</time>
      </trkpt>
      <trkpt lat="48.15163" lon="3.32846">
        <ele>156.5</ele>
        <time>2023-10-29T16:16:48Z</time>
      </trkpt>
      <trkpt lat="48.15159" lon="3.3286">
        <ele>156</ele>
        <time>2023-10-29T16:16:39Z</time>
      </trkpt>
      <trkpt lat="48.15157" lon="3.3287">
        <ele>155.9</ele>
        <time>2023-10-29T16:16:30Z</time>
      </trkpt>
      <trkpt lat="48.15156" lon="3.32877">
        <ele>155.9</ele>
        <time>2023-10-29T16:16:22Z</time>
      </trkpt>
      <trkpt lat="48.15153" lon="3.32892">
        <ele>155.7</ele>
        <time>2023-10-29T16:16:13Z</time>
      </trkpt>
      <trkpt lat="48.15153" lon="3.32894">
        <ele>155.8</ele>
        <time>2023-10-29T16:16:11Z</time>
      </trkpt>
      <trkpt lat="48.15151" lon="3.32908">
        <ele>156.1</ele>
        <time>2023-10-29T16:16:01Z</time>
      </trkpt>
      <trkpt lat="48.15151" lon="3.32925">
        <ele>156.9</ele>
        <time>2023-10-29T16:15:51Z</time>
      </trkpt>
      <trkpt lat="48.15148" lon="3.32934">
        <ele>156.6</ele>
        <time>2023-10-29T16:15:42Z</time>
      </trkpt>
      <trkpt lat="48.15144" lon="3.32943">
        <ele>156.1</ele>
        <time>2023-10-29T16:15:32Z</time>
      </trkpt>
      <trkpt lat="48.15136" lon="3.32948">
        <ele>154.6</ele>
        <time>2023-10-29T16:15:22Z</time>
      </trkpt>
      <trkpt lat="48.15131" lon="3.32957">
        <ele>154.2</ele>
        <time>2023-10-29T16:15:12Z</time>
      </trkpt>
      <trkpt lat="48.1513" lon="3.32957">
        <ele>154</ele>
        <time>2023-10-29T16:15:01Z</time>
      </trkpt>
      <trkpt lat="48.15123" lon="3.32963">
        <ele>152.9</ele>
        <time>2023-10-29T16:14:48Z</time>
      </trkpt>
      <trkpt lat="48.15116" lon="3.32962">
        <ele>151.3</ele>
        <time>2023-10-29T16:14:38Z</time>
      </trkpt>
      <trkpt lat="48.15107" lon="3.32956">
        <ele>149.4</ele>
        <time>2023-10-29T16:14:28Z</time>
      </trkpt>
      <trkpt lat="48.15101" lon="3.32952">
        <ele>148.6</ele>
        <time>2023-10-29T16:14:20Z</time>
      </trkpt>
      <trkpt lat="48.15096" lon="3.32944">
        <ele>147.3</ele>
        <time>2023-10-29T16:14:10Z</time>
      </trkpt>
      <trkpt lat="48.15094" lon="3.32941">
        <ele>146.8</ele>
        <time>2023-10-29T16:14:02Z</time>
      </trkpt>
      <trkpt lat="48.15092" lon="3.32938">
        <ele>146.3</ele>
        <time>2023-10-29T16:13:57Z</time>
      </trkpt>
      <trkpt lat="48.15088" lon="3.32932">
        <ele>145.2</ele>
        <time>2023-10-29T16:13:49Z</time>
      </trkpt>
      <trkpt lat="48.15082" lon="3.32926">
        <ele>144.1</ele>
        <time>2023-10-29T16:13:32Z</time>
      </trkpt>
      <trkpt lat="48.15084" lon="3.32905">
        <ele>141.8</ele>
      </trkpt>
      <trkpt lat="48.15075" lon="3.32813">
        <ele>132.4</ele>
      </trkpt>
      <trkpt lat="48.15065" lon="3.32774">
        <ele>127.5</ele>
      </trkpt>
      <trkpt lat="48.15054" lon="3.32753">
        <ele>124.2</ele>
      </trkpt>
      <trkpt lat="48.15044" lon="3.32723">
        <ele>122.2</ele>
      </trkpt>
      <trkpt lat="48.15038" lon="3.32702">
        <ele>120.5</ele>
      </trkpt>
      <trkpt lat="48.15023" lon="3.32642">
        <ele>116.8</ele>
      </trkpt>
      <trkpt lat="48.15014" lon="3.32608">
        <ele>114.3</ele>
      </trkpt>
      <trkpt lat="48.15005" lon="3.32589">
        <ele>112.1</ele>
      </trkpt>
      <trkpt lat="48.14999" lon="3.32568">
        <ele>109.8</ele>
      </trkpt>
      <trkpt lat="48.15" lon="3.32552">
        <ele>108.7</ele>
        <extensions>
          <visugpx:TrkExtension xmlns:visugpx="https://www.visugpx.com/editgpx/">
            <visugpx:node>1</visugpx:node>
            </visugpx:TrkExtension>
        </extensions>
      </trkpt>
    </trkseg>
  </trk>
</gpx>